This is the latest recevied weather packets stored in our database for station/object SP9KB-13. If no packets are shown the sender has not sent any weather packets the latest 10 day(s).
| Time | Temp. | Humidity | Pressure | Rain* | Wind** | Luminosity | Snow |
|---|---|---|---|---|---|---|---|
| 1777096613 | 11.11° C | 70% | 995.1 hPa | 0 mm | - | - | - |
| 1777096313 | 10° C | 76% | 995.2 hPa | 0 mm | - | - | - |
| 1777096012 | 8.89° C | 79% | 995.2 hPa | 0 mm | - | - | - |
| 1777095712 | 8.33° C | 82% | 995.3 hPa | 0 mm | - | - | - |
| 1777095411 | 6.67° C | 87% | 995.1 hPa | 0 mm | - | - | - |
| 1777095110 | 5.56° C | 91% | 995.2 hPa | 0 mm | - | - | - |
| 1777094810 | 5° C | 93% | 995.2 hPa | 0 mm | - | - | - |
| 1777094509 | 5° C | 94% | 995.2 hPa | 0 mm | - | - | - |
| 1777094209 | 5° C | 95% | 995.3 hPa | 0 mm | - | - | - |
| 1777093908 | 4.44° C | 97% | 995.2 hPa | 0 mm | - | - | - |
| 1777093608 | 4.44° C | 97% | 995.4 hPa | 0 mm | - | - | - |
| 1777093307 | 3.89° C | 98% | 995.2 hPa | 0 mm | - | - | - |
| 1777093007 | 3.33° C | 98% | 995.2 hPa | 0 mm | - | - | - |
| 1777092706 | 3.33° C | 98% | 995.3 hPa | 0 mm | - | - | - |
| 1777092405 | 3.33° C | 99% | 995.2 hPa | 0 mm | - | - | - |
| 1777092105 | 2.78° C | 99% | 995.2 hPa | 0 mm | - | - | - |
| 1777091804 | 2.78° C | 99% | 995.3 hPa | 0 mm | - | - | - |
| 1777091504 | 2.22° C | 99% | 995.3 hPa | 0 mm | - | - | - |
| 1777091203 | 2.22° C | 99% | 995.3 hPa | 0 mm | - | - | - |
| 1777090903 | 2.22° C | 99% | 995.3 hPa | 0 mm | - | - | - |
| 1777090602 | 2.22° C | 99% | 995.1 hPa | 0 mm | - | - | - |
| 1777090302 | 2.22° C | 99% | 995 hPa | 0 mm | - | - | - |
| 1777090001 | 1.67° C | 99% | 995.3 hPa | 0 mm | - | - | - |
| 1777089701 | 1.67° C | 99% | 995.2 hPa | 0 mm | - | - | - |
| 1777089400 | 1.67° C | 99% | 995.2 hPa | 0 mm | - | - | - |
* Rain latest hour (hover to see other rain measurements)
** Current wind speed in m/s (hover to see current wind gust speed)